createdAt,value
2023-03-20T00:02:38.613Z,63.68
2023-03-20T00:07:45.676Z,56.23
2023-03-20T00:12:53.960Z,56.67
2023-03-20T00:18:01.545Z,56.63
2023-03-20T00:23:08.917Z,55.37
2023-03-20T00:28:41.425Z,55.80
2023-03-20T00:33:48.099Z,55.90
2023-03-20T00:38:56.629Z,62.25
2023-03-20T00:44:22.967Z,62.13
2023-03-20T00:49:34.695Z,57.90
2023-03-20T00:54:41.476Z,56.60
2023-03-20T01:00:16.701Z,58.80
2023-03-20T01:05:23.823Z,57.80
2023-03-20T01:10:33.487Z,59.10
2023-03-20T01:15:42.495Z,58.92
2023-03-20T01:20:49.983Z,57.47
2023-03-20T01:25:57.395Z,55.88
2023-03-20T01:31:04.196Z,55.80
2023-03-20T01:36:17.156Z,54.90
2023-03-20T01:41:28.013Z,55.04
2023-03-20T01:46:37.264Z,55.78
2023-03-20T01:51:44.566Z,56.48
2023-03-20T01:57:13.896Z,57.90
2023-03-20T02:02:28.039Z,60.33
2023-03-20T02:07:36.891Z,63.70
2023-03-20T02:12:45.321Z,61.20
2023-03-20T02:17:54.984Z,60.27
2023-03-20T02:23:48.910Z,59.33
2023-03-20T02:29:09.231Z,56.43
2023-03-20T02:34:21.094Z,54.13
2023-03-20T02:39:50.306Z,53.00
2023-03-20T02:45:20.154Z,53.10
2023-03-20T02:51:00.621Z,52.33
2023-03-20T02:56:20.929Z,52.80
2023-03-20T03:01:39.350Z,52.43
2023-03-20T03:06:49.905Z,57.50
2023-03-20T03:12:10.432Z,58.60
2023-03-20T03:17:19.814Z,55.43
2023-03-20T03:22:28.439Z,54.27
2023-03-20T03:27:52.166Z,54.03
2023-03-20T03:33:18.064Z,57.10
2023-03-20T03:38:53.532Z,56.70
2023-03-20T03:44:23.026Z,55.97
2023-03-20T03:49:36.645Z,53.80
2023-03-20T03:54:50.031Z,55.25
2023-03-20T03:59:58.793Z,60.33
2023-03-20T04:05:08.957Z,59.60
2023-03-20T04:10:17.678Z,60.27
2023-03-20T04:15:24.697Z,59.63
2023-03-20T04:20:32.076Z,59.03
2023-03-20T04:25:39.871Z,59.93
2023-03-20T04:30:49.104Z,58.90
2023-03-20T04:35:56.543Z,57.10
2023-03-20T04:41:03.896Z,54.73
2023-03-20T04:46:10.788Z,53.87
2023-03-20T04:51:17.577Z,53.57
2023-03-20T04:56:24.437Z,54.73
2023-03-20T05:01:31.720Z,54.73
2023-03-20T05:06:38.886Z,53.20
2023-03-20T05:11:47.700Z,52.73
2023-03-20T05:16:54.398Z,54.17
2023-03-20T05:22:01.544Z,61.07
2023-03-20T05:27:08.602Z,58.30
2023-03-20T05:32:15.851Z,56.20
2023-03-20T05:37:23.018Z,56.73
2023-03-20T05:42:30.350Z,58.10
2023-03-20T05:47:38.614Z,55.37
2023-03-20T05:52:50.555Z,54.95
2023-03-20T05:57:57.455Z,54.73
2023-03-20T06:03:04.836Z,55.73
2023-03-20T06:08:11.524Z,59.87
2023-03-20T06:18:24.781Z,68.40
2023-03-20T06:23:31.766Z,70.20
2023-03-20T06:28:38.331Z,59.43
2023-03-20T06:33:45.715Z,64.58
2023-03-20T06:38:52.920Z,75.20
2023-03-20T06:44:00.423Z,74.50
2023-03-20T06:49:07.741Z,71.53
2023-03-20T06:54:15.056Z,72.43
2023-03-20T06:59:21.582Z,68.07
2023-03-20T07:04:29.712Z,66.67
2023-03-20T07:09:37.282Z,72.77
2023-03-20T07:14:45.122Z,70.22
2023-03-20T07:19:53.380Z,58.93
2023-03-20T07:25:00.910Z,59.23
2023-03-20T07:30:09.826Z,59.47
2023-03-20T07:35:17.281Z,53.83
2023-03-20T07:40:30.095Z,59.08
2023-03-20T07:45:37.833Z,53.30
2023-03-20T07:50:45.037Z,56.23
2023-03-20T07:55:51.943Z,57.23
2023-03-20T08:01:00.248Z,59.80
2023-03-20T08:06:09.242Z,69.07
2023-03-20T08:11:16.588Z,66.57
2023-03-20T08:16:23.942Z,60.87
2023-03-20T08:21:33.843Z,59.83
2023-03-20T08:26:40.768Z,56.53
2023-03-20T08:31:48.407Z,57.20
2023-03-20T08:36:56.203Z,56.23
2023-03-20T08:42:03.331Z,58.07
2023-03-20T08:52:17.326Z,56.18
2023-03-20T08:57:24.022Z,55.95
2023-03-20T09:02:31.345Z,57.93
2023-03-20T09:07:38.292Z,56.17
2023-03-20T09:12:45.225Z,53.42
2023-03-20T09:17:52.948Z,51.27
2023-03-20T09:23:00.032Z,51.77
2023-03-20T09:28:07.799Z,52.00
2023-03-20T09:43:57.839Z,51.37
2023-03-20T09:49:15.329Z,51.47
2023-03-20T09:54:53.261Z,51.90
2023-03-20T09:59:47.637Z,52.37
2023-03-20T10:04:56.565Z,53.03
2023-03-20T10:10:03.581Z,54.60
2023-03-20T10:15:41.462Z,54.70
2023-03-20T10:20:55.955Z,53.23
2023-03-20T10:26:09.710Z,52.97
2023-03-20T10:31:50.128Z,53.78
2023-03-20T10:37:16.721Z,53.58
2023-03-20T10:42:31.986Z,53.10
2023-03-20T10:47:43.010Z,53.20
2023-03-20T10:52:53.519Z,53.65
2023-03-20T10:58:10.669Z,53.63
2023-03-20T11:03:30.688Z,52.97
2023-03-20T11:08:43.756Z,53.10
2023-03-20T11:13:50.965Z,52.90
2023-03-20T11:18:57.363Z,52.00
2023-03-20T11:24:04.647Z,52.27
2023-03-20T11:29:20.570Z,52.53
2023-03-20T11:34:29.421Z,52.63
2023-03-20T11:39:37.565Z,52.47
2023-03-20T11:44:44.224Z,54.60
2023-03-20T11:50:01.771Z,52.70
2023-03-20T11:55:27.596Z,53.63
2023-03-20T12:00:41.457Z,53.40
2023-03-20T12:05:48.088Z,53.63
2023-03-20T12:10:59.573Z,55.00
2023-03-20T12:16:10.325Z,54.77
2023-03-20T12:21:33.610Z,54.26
2023-03-20T12:27:20.287Z,53.50
2023-03-20T12:32:42.709Z,52.58
2023-03-20T12:37:49.058Z,52.17
2023-03-20T12:48:44.447Z,50.67
2023-03-20T12:54:04.080Z,51.77
2023-03-20T12:59:19.333Z,52.17
2023-03-20T13:04:57.092Z,51.47
2023-03-20T13:10:21.651Z,52.10
2023-03-20T13:15:33.166Z,53.20
2023-03-20T13:20:52.836Z,53.10
2023-03-20T13:26:24.777Z,53.57
2023-03-20T13:31:48.202Z,53.53
2023-03-20T13:37:24.415Z,53.73
2023-03-20T13:42:39.383Z,51.28
2023-03-20T13:47:48.849Z,50.10
2023-03-20T13:53:03.033Z,49.57
2023-03-20T13:58:33.799Z,49.67
2023-03-20T14:03:48.601Z,50.07
2023-03-20T14:08:58.250Z,49.80
2023-03-20T14:14:33.593Z,50.70
2023-03-20T14:19:40.845Z,50.53
2023-03-20T14:24:52.231Z,51.00
2023-03-20T14:29:58.810Z,51.23
2023-03-20T14:35:27.581Z,50.88
2023-03-20T14:40:40.737Z,51.60
2023-03-20T14:45:56.032Z,52.80
2023-03-20T14:51:40.468Z,52.03
2023-03-20T14:56:47.707Z,53.27
2023-03-20T15:02:01.893Z,54.23
2023-03-20T15:07:30.057Z,54.73
2023-03-20T15:12:39.042Z,54.13
2023-03-20T15:17:48.680Z,54.60
2023-03-20T15:22:59.285Z,55.17
2023-03-20T15:28:17.968Z,55.63
2023-03-20T15:33:33.825Z,55.33
2023-03-20T15:38:41.739Z,57.43
2023-03-20T15:43:49.363Z,57.73
2023-03-20T15:48:56.284Z,57.60
2023-03-20T15:54:06.278Z,56.97
2023-03-20T15:59:17.501Z,57.63
2023-03-20T16:04:25.724Z,69.25
2023-03-20T16:09:32.627Z,57.27
2023-03-20T16:14:41.914Z,59.86
2023-03-20T16:19:48.950Z,58.57
2023-03-20T16:25:01.883Z,58.90
2023-03-20T16:30:16.683Z,57.83
2023-03-20T16:35:33.833Z,58.47
2023-03-20T16:40:40.504Z,58.67
2023-03-20T16:45:54.511Z,60.20
2023-03-20T16:51:11.806Z,66.20
2023-03-20T16:56:29.115Z,63.53
2023-03-20T17:01:35.861Z,57.60
2023-03-20T17:06:48.999Z,56.77
2023-03-20T17:12:06.397Z,58.40
2023-03-20T17:17:23.394Z,58.37
2023-03-20T17:27:39.044Z,59.73
2023-03-20T17:32:46.626Z,60.47
2023-03-20T17:37:55.309Z,62.43
2023-03-20T17:43:02.433Z,58.37
2023-03-20T17:48:18.086Z,59.90
2023-03-20T17:53:28.925Z,57.48
2023-03-20T17:58:36.540Z,59.10
2023-03-20T18:03:43.816Z,58.83
2023-03-20T18:08:50.613Z,57.83
2023-03-20T18:13:57.988Z,61.50
2023-03-20T18:19:05.134Z,60.10
2023-03-20T18:24:13.006Z,56.00
2023-03-20T18:29:20.259Z,57.10
2023-03-20T18:34:27.100Z,56.08
2023-03-20T18:39:34.900Z,56.92
2023-03-20T18:44:43.333Z,55.83
2023-03-20T18:49:51.208Z,57.50
2023-03-20T18:54:58.708Z,58.17
2023-03-20T19:00:07.229Z,57.27
2023-03-20T19:05:14.322Z,56.23
2023-03-20T19:10:42.176Z,56.08
2023-03-20T19:15:50.645Z,56.80
2023-03-20T19:21:02.735Z,56.37
2023-03-20T19:26:18.854Z,57.77
2023-03-20T19:31:26.635Z,55.93
2023-03-20T19:36:39.080Z,57.07
2023-03-20T19:41:47.146Z,56.50
2023-03-20T19:46:56.255Z,56.20
2023-03-20T19:52:05.126Z,59.20
2023-03-20T19:57:13.784Z,57.73
2023-03-20T20:02:22.198Z,58.28
2023-03-20T20:12:39.592Z,57.13
2023-03-20T20:17:48.397Z,56.33
2023-03-20T20:22:55.697Z,55.03
2023-03-20T20:28:02.875Z,56.23
2023-03-20T20:33:10.431Z,56.17
2023-03-20T20:38:40.881Z,55.02
2023-03-20T20:44:07.891Z,56.23
2023-03-20T20:48:43.078Z,54.77
2023-03-20T20:53:50.529Z,55.30
2023-03-20T20:58:58.783Z,54.23
2023-03-20T21:04:07.531Z,53.87
2023-03-20T21:09:14.267Z,53.80
2023-03-20T21:14:22.328Z,53.17
2023-03-20T21:19:36.229Z,52.97
2023-03-20T21:24:44.804Z,54.13
2023-03-20T21:29:51.752Z,53.87
2023-03-20T21:35:00.145Z,53.98
2023-03-20T21:40:09.520Z,53.90
2023-03-20T22:06:38.532Z,51.37
2023-03-20T22:11:57.162Z,50.93
2023-03-20T22:32:27.920Z,52.14
2023-03-20T22:48:25.512Z,51.63
2023-03-20T22:53:32.678Z,51.27
2023-03-20T22:58:39.629Z,50.73
2023-03-20T23:03:47.213Z,50.73
2023-03-20T23:09:02.448Z,49.73
2023-03-20T23:14:18.123Z,51.07
2023-03-20T23:19:16.139Z,50.57
2023-03-20T23:24:23.224Z,49.67
2023-03-20T23:29:30.877Z,50.10
2023-03-20T23:34:39.041Z,50.07
2023-03-20T23:39:48.576Z,50.47
2023-03-20T23:45:00.245Z,51.60
2023-03-20T23:50:06.433Z,51.20
2023-03-20T23:55:14.890Z,52.23
